Time;durP1;ratioP1;P1;durP2;ratioP2;P2;SDS_P1;SDS_P2;PMS_P1;PMS_P2;Temp;Humidity;BMP_temperature;BMP_pressure;BME280_temperature;BME280_humidity;BME280_pressure;Samples;Min_cycle;Max_cycle;Signal;HPM_P1;HPM_P2
2023/10/02 00:03:39;;;;;;;9.20;3.00;;;;;;;18.82;97.42;100895.46;106921;1261;60390;-89
2023/10/02 00:06:16;;;;;;;9.10;2.50;;;;;;;18.82;97.45;100890.30;106358;1262;73872;-85
2023/10/02 00:08:51;;;;;;;12.10;3.50;;;;;;;18.80;97.89;100896.84;106465;1258;69385;-85
2023/10/02 00:11:36;;;;;;;7.30;2.90;;;;;;;18.82;97.93;100897.89;106573;1262;71426;-90
2023/10/02 00:14:18;;;;;;;7.20;2.70;;;;;;;18.83;98.10;100897.70;106174;1259;60442;-86
2023/10/02 00:16:59;;;;;;;6.20;2.50;;;;;;;18.99;97.10;100892.98;106553;1262;59653;-86
2023/10/02 00:19:44;;;;;;;6.00;2.20;;;;;;;19.04;96.76;100890.27;105840;1258;73811;-89
2023/10/02 00:22:35;;;;;;;7.00;2.90;;;;;;;19.09;96.36;100890.18;106047;1263;67606;-85
2023/10/02 00:25:07;;;;;;;6.20;2.50;;;;;;;19.12;96.35;100890.09;105882;1258;72698;-90
2023/10/02 00:27:38;;;;;;;11.90;2.90;;;;;;;19.09;96.34;100891.00;106539;1257;60391;-87
2023/10/02 00:30:13;;;;;;;10.10;2.70;;;;;;;19.11;96.28;100890.77;106099;1263;59545;-86
2023/10/02 00:32:45;;;;;;;7.30;2.60;;;;;;;19.11;96.08;100893.23;105878;1257;72703;-89
2023/10/02 00:35:14;;;;;;;7.70;2.80;;;;;;;19.06;96.37;100894.73;105960;1258;67293;-90
2023/10/02 00:37:47;;;;;;;6.60;2.40;;;;;;;19.10;96.13;100898.94;105917;1263;71413;-87
2023/10/02 00:40:20;;;;;;;8.20;2.30;;;;;;;19.12;95.51;100896.90;105933;1263;60529;-86
2023/10/02 00:42:53;;;;;;;10.70;3.00;;;;;;;19.08;95.46;100893.80;107118;1263;60532;-90
2023/10/02 00:45:29;;;;;;;9.60;2.90;;;;;;;19.06;95.57;100898.46;106111;1263;73007;-90
2023/10/02 00:48:25;;;;;;;6.50;2.10;;;;;;;19.04;95.70;100899.08;105826;1264;68899;-87
2023/10/02 00:50:54;;;;;;;6.30;2.40;;;;;;;19.00;95.83;100901.03;105842;1263;71232;-89
2023/10/02 00:53:46;;;;;;;5.50;2.20;;;;;;;19.02;95.64;100900.85;105999;1263;61707;-90
2023/10/02 00:56:24;;;;;;;8.20;2.40;;;;;;;19.02;95.25;100899.36;105804;1258;60837;-86
2023/10/02 00:59:00;;;;;;;9.40;3.00;;;;;;;19.01;95.09;100899.34;106408;1265;74283;-86
2023/10/02 01:01:35;;;;;;;8.60;2.70;;;;;;;18.92;95.36;100901.77;105759;1257;68420;-89
2023/10/02 01:04:10;;;;;;;7.90;2.60;;;;;;;18.88;95.44;100901.22;106012;1263;72683;-89
2023/10/02 01:10:07;;;;;;;7.60;2.40;;;;;;;18.90;95.46;100903.34;106054;1266;61189;-90
2023/10/02 01:12:43;;;;;;;10.50;2.70;;;;;;;18.90;95.61;100902.96;105819;1263;73853;-90
2023/10/02 01:15:12;;;;;;;8.30;2.80;;;;;;;18.94;95.60;100903.89;105868;1262;69607;-90
2023/10/02 01:17:40;;;;;;;9.50;2.80;;;;;;;19.01;95.31;100904.22;105884;1263;71484;-90
2023/10/02 01:20:42;;;;;;;6.40;2.60;;;;;;;19.07;94.92;100907.02;105784;1260;60526;-90
2023/10/02 01:23:16;;;;;;;6.00;3.20;;;;;;;19.02;95.58;100904.91;106415;1256;60431;-89
2023/10/02 01:25:49;;;;;;;7.10;2.90;;;;;;;19.08;95.09;100904.56;106003;1262;72585;-90
2023/10/02 01:28:20;;;;;;;6.60;2.60;;;;;;;19.06;94.93;100906.15;105855;1264;68405;-86
2023/10/02 01:30:50;;;;;;;5.50;2.30;;;;;;;19.01;95.07;100910.97;105983;1257;72674;-89
2023/10/02 01:33:21;;;;;;;7.70;2.60;;;;;;;18.97;95.29;100909.77;105953;1260;61206;-91
2023/10/02 01:35:56;;;;;;;8.20;2.20;;;;;;;18.94;95.83;100914.61;106836;1256;60367;-90
2023/10/02 01:38:32;;;;;;;9.90;2.30;;;;;;;19.01;95.44;100912.15;106146;1262;72997;-86
2023/10/02 01:41:08;;;;;;;;;;;;;;;19.02;95.31;100915.67;105882;1262;68417;-86
2023/10/02 01:43:42;;;;;;;7.00;2.30;;;;;;;19.02;95.44;100919.05;105880;1262;72718;-91
2023/10/02 01:46:14;;;;;;;7.80;2.40;;;;;;;19.01;95.39;100923.29;105897;1264;60491;-90
2023/10/02 01:48:50;;;;;;;8.40;2.40;;;;;;;19.00;95.54;100921.02;106673;1259;60479;-88
2023/10/02 01:51:25;;;;;;;9.70;2.80;;;;;;;19.00;95.71;100930.84;105840;1257;72654;-85
2023/10/02 01:53:59;;;;;;;9.30;2.50;;;;;;;18.97;96.24;100925.27;105963;1264;68327;-87
2023/10/02 01:56:29;;;;;;;7.70;2.10;;;;;;;18.97;96.24;100929.77;105860;1264;72670;-90
2023/10/02 01:59:11;;;;;;;4.90;2.10;;;;;;;18.95;96.36;100930.15;105933;1262;60429;-91
2023/10/02 02:01:46;;;;;;;7.80;2.60;;;;;;;18.96;96.48;100930.80;106474;1257;60545;-88
2023/10/02 02:04:28;;;;;;;10.50;2.40;;;;;;;18.93;96.47;100930.05;105862;1257;73778;-86
2023/10/02 02:06:57;;;;;;;8.50;2.70;;;;;;;18.93;96.51;100930.66;105847;1266;67394;-86
2023/10/02 02:09:35;;;;;;;8.60;2.80;;;;;;;18.93;96.48;100930.67;105924;1261;73124;-86
2023/10/02 02:12:08;;;;;;;6.10;2.30;;;;;;;18.91;96.39;100927.69;105897;1261;60536;-90
2023/10/02 02:14:49;;;;;;;6.60;2.20;;;;;;;18.83;96.71;100933.89;106887;1257;60158;-86
2023/10/02 02:17:25;;;;;;;7.90;2.40;;;;;;;18.75;97.17;100932.19;105996;1257;73794;-89
2023/10/02 02:19:55;;;;;;;7.40;2.40;;;;;;;18.70;97.46;100932.59;105869;1258;68438;-90
2023/10/02 02:22:26;;;;;;;9.60;2.80;;;;;;;18.68;97.41;100931.77;105871;1267;73023;-89
2023/10/02 02:24:58;;;;;;;7.00;2.70;;;;;;;18.67;97.32;100931.13;105971;1257;60622;-90
2023/10/02 02:27:26;;;;;;;9.20;3.20;;;;;;;18.61;97.49;100934.52;106504;1257;60328;-90
2023/10/02 02:29:56;;;;;;;8.60;2.70;;;;;;;18.53;98.32;100935.88;105851;1258;72528;-86
2023/10/02 02:32:44;;;;;;;8.10;2.30;;;;;;;18.52;98.56;100932.09;105841;1257;66294;-86
2023/10/02 02:35:15;;;;;;;8.70;2.90;;;;;;;18.59;97.96;100934.48;105878;1261;72702;-89
2023/10/02 02:37:43;;;;;;;8.10;2.80;;;;;;;18.62;97.63;100937.02;105885;1263;61712;-88
2023/10/02 02:40:29;;;;;;;6.90;2.70;;;;;;;18.63;97.85;100939.52;106316;1257;60568;-90
2023/10/02 02:42:58;;;;;;;5.40;2.60;;;;;;;18.63;97.96;100939.06;105823;1258;73954;-90
2023/10/02 02:45:29;;;;;;;11.00;3.30;;;;;;;18.63;97.64;100938.41;105898;1258;66517;-87
2023/10/02 02:48:04;;;;;;;5.00;2.40;;;;;;;18.50;98.02;100939.31;105858;1261;72458;-89
2023/10/02 02:50:41;;;;;;;7.60;3.00;;;;;;;18.49;97.92;100936.31;105792;1257;61664;-86
2023/10/02 02:53:16;;;;;;;8.70;2.80;;;;;;;18.47;97.58;100935.11;105926;1257;60540;-85
2023/10/02 02:55:44;;;;;;;9.30;3.00;;;;;;;18.39;97.82;100939.73;106579;1262;72967;-89
2023/10/02 02:58:14;;;;;;;6.70;3.00;;;;;;;18.31;98.37;100937.88;105837;1264;68752;-89
2023/10/02 03:00:42;;;;;;;7.40;3.10;;;;;;;18.30;98.28;100935.31;105983;1260;70996;-86
2023/10/02 03:05:58;;;;;;;11.00;3.20;;;;;;;18.17;99.48;100941.73;106114;1257;60006;-85
2023/10/02 03:08:39;;;;;;;7.60;2.90;;;;;;;18.15;99.82;100942.52;106181;1263;73821;-85
2023/10/02 03:11:06;;;;;;;11.80;3.00;;;;;;;18.17;99.88;100940.05;105823;1258;68522;-85
2023/10/02 03:13:35;;;;;;;11.00;3.20;;;;;;;18.15;100.00;100942.63;105972;1257;72961;-89
2023/10/02 03:16:08;;;;;;;11.80;4.00;;;;;;;18.17;100.00;100944.14;105901;1257;60539;-89
2023/10/02 03:18:36;;;;;;;10.50;3.40;;;;;;;18.17;100.00;100946.51;105947;1264;60484;-89
2023/10/02 03:21:25;;;;;;;6.70;2.70;;;;;;;18.12;100.00;100948.08;106977;1257;73883;-88
2023/10/02 03:23:54;;;;;;;11.00;3.10;;;;;;;18.11;100.00;100945.19;106005;1257;67522;-85
2023/10/02 03:29:02;;;;;;;12.00;3.40;;;;;;;18.10;100.00;100951.68;105869;1257;60452;-86
2023/10/02 03:31:34;;;;;;;14.40;3.30;;;;;;;18.07;100.00;100950.48;106010;1260;60548;-86
2023/10/02 03:37:00;;;;;;;10.40;3.30;;;;;;;17.98;100.00;100955.69;105834;1261;68378;-85
2023/10/02 03:42:21;;;;;;;8.50;3.00;;;;;;;17.77;100.00;100958.44;105871;1265;60502;-86
2023/10/02 03:44:54;;;;;;;13.10;4.00;;;;;;;17.71;100.00;100965.64;105945;1257;60750;-87
2023/10/02 03:47:23;;;;;;;10.70;3.80;;;;;;;17.64;100.00;100962.58;106622;1263;73822;-90
2023/10/02 03:49:50;;;;;;;7.80;3.20;;;;;;;17.62;100.00;100967.86;106140;1258;68515;-86
2023/10/02 03:52:18;;;;;;;9.70;4.20;;;;;;;17.61;100.00;100973.08;105872;1259;73204;-89
2023/10/02 03:54:46;;;;;;;8.80;3.20;;;;;;;17.58;100.00;100975.24;105825;1257;60628;-86
2023/10/02 03:57:37;;;;;;;11.10;3.80;;;;;;;17.61;100.00;100976.16;105922;1263;60423;-86
2023/10/02 04:00:18;;;;;;;15.40;4.10;;;;;;;17.64;100.00;100981.86;106597;1258;73527;-87
2023/10/02 04:02:51;;;;;;;10.20;3.40;;;;;;;17.61;100.00;100983.06;105975;1257;68646;-85
2023/10/02 04:08:36;;;;;;;8.70;3.60;;;;;;;17.67;100.00;100988.80;105515;1266;61691;-88
2023/10/02 04:11:04;;;;;;;8.40;3.20;;;;;;;17.73;100.00;100992.64;105877;1258;60507;-89
2023/10/02 04:13:34;;;;;;;12.10;3.60;;;;;;;17.75;100.00;100990.80;107692;1257;72668;-86
2023/10/02 04:18:58;;;;;;;13.00;4.40;;;;;;;17.77;100.00;100992.15;105678;1260;74534;-85
2023/10/02 04:21:28;;;;;;;9.90;4.00;;;;;;;17.78;100.00;100993.50;106109;1258;60475;-89
2023/10/02 04:23:57;;;;;;;31.70;5.50;;;;;;;17.75;100.00;100994.35;105909;1258;60487;-89
2023/10/02 04:26:28;;;;;;;9.80;3.00;;;;;;;17.74;100.00;100998.86;107664;1257;73968;-86
2023/10/02 04:29:09;;;;;;;10.60;3.50;;;;;;;17.77;100.00;100999.73;105820;1257;68421;-85
2023/10/02 04:31:41;;;;;;;10.70;3.70;;;;;;;17.76;100.00;101005.27;105981;1257;72628;-85
2023/10/02 04:34:24;;;;;;;15.70;4.20;;;;;;;17.72;100.00;101004.25;105983;1260;60695;-87
2023/10/02 04:36:52;;;;;;;15.50;3.90;;;;;;;17.69;100.00;101006.02;105983;1259;60484;-88
2023/10/02 04:42:11;;;;;;;9.80;3.30;;;;;;;17.66;100.00;101008.68;105879;1257;68432;-85
2023/10/02 04:44:44;;;;;;;9.90;3.50;;;;;;;17.64;100.00;101009.66;105795;1259;71407;-90
2023/10/02 04:47:19;;;;;;;7.40;3.30;;;;;;;17.60;100.00;101010.17;105852;1259;60664;-86
2023/10/02 04:55:42;;;;;;;9.60;3.30;;;;;;;17.81;100.00;101014.73;105816;1257;68820;-90
2023/10/02 04:58:19;;;;;;;9.00;3.50;;;;;;;17.85;100.00;101017.25;105946;1263;72677;-90
2023/10/02 05:03:54;;;;;;;12.60;2.70;;;;;;;17.92;100.00;101028.18;106256;1257;60492;-89
2023/10/02 05:09:19;;;;;;;9.30;3.40;;;;;;;18.08;100.00;101036.46;105961;1263;67730;-90
2023/10/02 05:12:03;;;;;;;11.10;3.70;;;;;;;18.16;100.00;101036.41;105927;1260;71438;-90
2023/10/02 05:14:51;;;;;;;9.50;3.10;;;;;;;18.24;100.00;101038.70;106029;1261;60504;-86
2023/10/02 05:18:09;;;;;;;13.60;4.00;;;;;;;18.31;100.00;101040.23;106785;1257;60495;-87
2023/10/02 05:20:13;;;;;;;11.60;3.40;;;;;;;18.41;100.00;101044.45;105742;1257;73832;-87
2023/10/02 05:22:42;;;;;;;9.40;3.30;;;;;;;18.44;100.00;101048.99;105962;1264;67173;-86
2023/10/02 05:25:16;;;;;;;12.20;4.20;;;;;;;18.53;100.00;101043.96;106056;1262;72696;-86
2023/10/02 05:27:47;;;;;;;12.80;4.10;;;;;;;18.66;100.00;101046.30;106006;1257;60428;-87
2023/10/02 05:30:18;;;;;;;12.90;4.00;;;;;;;18.76;100.00;101047.65;106285;1257;60979;-87
2023/10/02 05:32:46;;;;;;;8.70;3.70;;;;;;;18.90;100.00;101051.04;106808;1262;73863;-87
2023/10/02 05:37:45;;;;;;;14.30;4.50;;;;;;;19.12;100.00;101051.72;106037;1259;72823;-88
2023/10/02 05:48:27;;;;;;;10.30;3.40;;;;;;;19.59;99.90;101053.18;107012;1262;67098;-87
2023/10/02 05:50:57;;;;;;;12.70;4.10;;;;;;;19.73;99.71;101056.30;105970;1258;71467;-87
2023/10/02 05:53:26;;;;;;;12.30;4.10;;;;;;;19.83;99.50;101057.64;106008;1257;60511;-88
2023/10/02 05:55:56;;;;;;;11.20;3.50;;;;;;;20.00;97.72;101055.77;105948;1259;60506;-87
2023/10/02 05:58:31;;;;;;;10.20;3.90;;;;;;;20.09;97.08;101058.16;105974;1257;74579;-87
2023/10/02 06:01:05;;;;;;;8.90;3.40;;;;;;;20.24;95.99;101058.98;106451;1259;68413;-87
2023/10/02 06:03:37;;;;;;;9.80;3.60;;;;;;;20.40;94.34;101059.80;106244;1258;71392;-87
2023/10/02 06:06:18;;;;;;;6.70;3.30;;;;;;;20.53;93.95;101057.37;106040;1257;61759;-89
2023/10/02 06:08:55;;;;;;;10.10;3.80;;;;;;;20.73;92.85;101060.02;106059;1257;60526;-88
2023/10/02 06:11:25;;;;;;;10.00;3.60;;;;;;;20.90;92.27;101059.61;106072;1258;73785;-91
2023/10/02 06:14:09;;;;;;;12.10;3.40;;;;;;;21.04;91.82;101062.00;106885;1257;68312;-91
2023/10/02 06:16:39;;;;;;;7.80;2.90;;;;;;;21.20;89.72;101067.98;106056;1261;71388;-90
2023/10/02 06:19:13;;;;;;;10.20;3.40;;;;;;;21.32;88.93;101068.17;106098;1261;62133;-89
2023/10/02 06:21:45;;;;;;;11.10;3.90;;;;;;;21.46;87.28;101069.30;106199;1258;60292;-89
2023/10/02 06:24:18;;;;;;;9.00;3.60;;;;;;;21.57;86.24;101072.67;106563;1261;73801;-89
2023/10/02 06:26:58;;;;;;;10.60;3.60;;;;;;;21.62;85.68;101068.27;106079;1262;67387;-89
2023/10/02 06:29:33;;;;;;;12.90;3.60;;;;;;;21.76;85.09;101069.90;105911;1259;73164;-89
2023/10/02 06:32:19;;;;;;;13.70;3.60;;;;;;;21.91;84.36;101067.50;106394;1257;60581;-87
2023/10/02 06:34:50;;;;;;;11.10;3.20;;;;;;;22.10;83.24;101067.95;105966;1262;60097;-87
2023/10/02 06:37:21;;;;;;;12.40;4.00;;;;;;;22.21;82.41;101064.71;106447;1264;74955;-87
2023/10/02 06:42:48;;;;;;;7.10;3.30;;;;;;;22.45;82.29;101069.54;106045;1258;71519;-86
2023/10/02 06:45:25;;;;;;;8.80;3.10;;;;;;;22.57;82.13;101069.30;106285;1260;60377;-88
2023/10/02 06:47:54;;;;;;;8.50;3.30;;;;;;;22.68;81.52;101067.85;106826;1257;60348;-88
2023/10/02 06:50:27;;;;;;;8.20;3.50;;;;;;;22.73;80.42;101065.17;106173;1257;73115;-88
2023/10/02 06:52:57;;;;;;;9.70;3.80;;;;;;;22.81;78.48;101066.60;106445;1257;68375;-86
2023/10/02 06:55:26;;;;;;;9.70;4.30;;;;;;;22.86;76.63;101068.84;106071;1261;71416;-88
2023/10/02 06:57:54;;;;;;;11.10;4.60;;;;;;;22.91;76.77;101075.21;106138;1257;60491;-89
2023/10/02 07:00:36;;;;;;;19.10;5.10;;;;;;;22.95;76.29;101079.35;106319;1257;60390;-89
2023/10/02 07:03:06;;;;;;;;;;;;;;;23.08;75.42;101081.91;106107;1256;72601;-89
2023/10/02 07:05:34;;;;;;;11.40;4.20;;;;;;;23.11;74.92;101086.39;106121;1260;67638;-88
2023/10/02 07:08:18;;;;;;;11.50;4.30;;;;;;;23.14;74.51;101090.95;106137;1258;71819;-88
2023/10/02 07:10:47;;;;;;;10.40;3.50;;;;;;;23.25;74.66;101088.77;106144;1257;60553;-89
2023/10/02 07:13:23;;;;;;;8.70;3.30;;;;;;;23.46;74.37;101089.48;107080;1256;60584;-88
2023/10/02 07:15:59;;;;;;;8.30;3.60;;;;;;;23.67;73.85;101094.20;106162;1262;73901;-89
2023/10/02 07:18:37;;;;;;;10.40;4.00;;;;;;;23.90;71.94;101084.61;106126;1258;66828;-89
2023/10/02 07:21:09;;;;;;;9.40;3.90;;;;;;;24.09;70.21;101082.28;106011;1262;73198;-89
2023/10/02 07:23:40;;;;;;;9.30;3.60;;;;;;;24.29;68.66;101084.89;106048;1263;60546;-90
2023/10/02 07:26:49;;;;;;;17.30;4.10;;;;;;;24.40;68.01;101081.60;106872;1257;60654;-90
2023/10/02 07:29:09;;;;;;;10.00;3.70;;;;;;;24.55;64.32;101079.85;106066;1256;73898;-88
2023/10/02 07:31:37;;;;;;;12.10;4.20;;;;;;;24.61;63.38;101079.70;106391;1257;68530;-89
2023/10/02 07:34:08;;;;;;;11.50;3.20;;;;;;;24.55;63.55;101078.91;106244;1257;72684;-88
2023/10/02 07:36:44;;;;;;;10.30;3.40;;;;;;;24.59;62.81;101080.98;106796;1257;60145;-88
2023/10/02 07:39:35;;;;;;;10.60;3.30;;;;;;;24.63;62.45;101080.95;106083;1260;60449;-88
2023/10/02 07:42:00;;;;;;;6.40;2.90;;;;;;;24.63;62.13;101082.14;106193;1261;75934;-88
2023/10/02 07:44:47;;;;;;;6.30;3.40;;;;;;;24.61;61.87;101084.55;106117;1256;68360;-88
2023/10/02 07:47:18;;;;;;;8.30;2.80;;;;;;;24.58;60.44;101093.81;106066;1257;72842;-88
2023/10/02 07:49:59;;;;;;;9.40;3.30;;;;;;;24.49;58.39;101096.14;107043;1257;60461;-88
2023/10/02 07:52:29;;;;;;;13.00;3.30;;;;;;;24.40;58.84;101095.01;106110;1257;60619;-87
2023/10/02 07:55:01;;;;;;;6.60;2.60;;;;;;;24.40;59.57;101094.04;106098;1257;73845;-89
2023/10/02 07:57:32;;;;;;;10.30;3.70;;;;;;;24.48;59.57;101088.63;106091;1264;67096;-89
2023/10/02 08:00:00;;;;;;;15.40;4.20;;;;;;;24.59;58.36;101096.48;106064;1257;72857;-89
2023/10/02 08:02:33;;;;;;;7.30;2.40;;;;;;;24.73;57.85;101097.25;106980;1257;60422;-90
2023/10/02 08:05:03;;;;;;;8.80;3.70;;;;;;;24.85;57.00;101092.52;106019;1257;60504;-89
2023/10/02 08:07:31;;;;;;;10.10;2.80;;;;;;;24.99;56.74;101090.30;106162;1256;73885;-87
2023/10/02 08:10:16;;;;;;;8.60;3.10;;;;;;;25.17;56.68;101080.28;106623;1257;69200;-87
2023/10/02 08:12:57;;;;;;;8.50;2.80;;;;;;;25.25;54.75;101082.97;106743;1260;71081;-87
2023/10/02 08:15:32;;;;;;;9.60;2.80;;;;;;;25.31;53.95;101085.40;106070;1260;60481;-87
2023/10/02 08:18:03;;;;;;;20.80;3.90;;;;;;;25.44;53.49;101090.33;107239;1260;60364;-87
2023/10/02 08:20:36;;;;;;;8.40;3.00;;;;;;;25.59;52.52;101091.55;106135;1262;64917;-87
2023/10/02 08:23:21;;;;;;;6.30;2.50;;;;;;;25.69;50.95;101097.54;106073;1257;230794;-88
2023/10/02 08:26:02;;;;;;;8.80;3.00;;;;;;;25.71;49.38;101104.38;106128;1257;65769;-87
2023/10/02 08:28:36;;;;;;;7.70;2.80;;;;;;;25.67;49.68;101098.21;106032;1257;60818;-87
2023/10/02 08:31:04;;;;;;;7.50;2.80;;;;;;;25.76;49.46;101098.40;107539;1257;60444;-87
2023/10/02 08:33:33;;;;;;;9.20;3.00;;;;;;;25.91;48.42;101096.98;106859;1257;63859;-88
2023/10/02 08:36:21;;;;;;;8.10;2.90;;;;;;;25.95;47.59;101100.09;106164;1258;60540;-87
2023/10/02 08:38:49;;;;;;;9.80;2.60;;;;;;;25.88;47.20;101106.67;106099;1256;63877;-87
2023/10/02 08:41:29;;;;;;;5.40;2.70;;;;;;;25.97;47.27;101103.17;107510;1256;60549;-86
2023/10/02 08:44:00;;;;;;;5.70;3.00;;;;;;;26.21;47.86;101103.24;106181;1257;60540;-87
2023/10/02 08:46:31;;;;;;;12.00;2.70;;;;;;;26.42;46.64;101103.09;106121;1257;65128;-88
2023/10/02 08:49:00;;;;;;;8.30;2.20;;;;;;;26.46;43.88;101102.77;106027;1257;62007;-88
2023/10/02 08:51:36;;;;;;;8.10;2.10;;;;;;;26.39;43.08;101106.16;106114;1257;63681;-87
2023/10/02 08:54:07;;;;;;;6.00;2.40;;;;;;;26.38;43.46;101108.94;107158;1257;60584;-87
2023/10/02 08:56:45;;;;;;;4.90;2.20;;;;;;;26.42;43.71;101110.54;105976;1257;60461;-87
2023/10/02 08:59:17;;;;;;;5.40;2.00;;;;;;;26.50;44.01;101106.20;106109;1256;64934;-87
2023/10/02 09:01:47;;;;;;;8.30;2.70;;;;;;;26.53;43.65;101108.27;106342;1256;60405;-86
2023/10/02 09:04:28;;;;;;;10.20;2.50;;;;;;;26.45;43.46;101112.77;106089;1256;64235;-87
2023/10/02 09:06:59;;;;;;;7.10;2.10;;;;;;;26.47;43.18;101113.05;106830;1259;60396;-87
2023/10/02 09:09:36;;;;;;;6.60;2.20;;;;;;;26.57;42.55;101112.20;106023;1261;60446;-90
2023/10/02 09:12:08;;;;;;;5.00;2.00;;;;;;;26.68;42.43;101111.11;106079;1257;63701;-89
2023/10/02 09:14:39;;;;;;;8.40;2.70;;;;;;;26.71;42.45;101113.42;105989;1257;60678;-89
2023/10/02 09:19:53;;;;;;;5.20;2.10;;;;;;;26.74;42.53;101110.98;106064;1257;60459;-89
2023/10/02 09:22:25;;;;;;;5.10;2.00;;;;;;;26.83;42.34;101111.77;107099;1256;60322;-90
2023/10/02 09:25:26;;;;;;;7.00;2.30;;;;;;;26.83;41.83;101109.14;106035;1263;64950;-89
2023/10/02 10:46:12;;;;;;;;;;;;;;;27.00;39.97;101103.27;106324;1258;60501;-88
2023/10/02 10:48:40;;;;;;;6.70;2.30;;;;;;;26.99;40.09;101103.15;106553;1257;60557;-89
2023/10/02 10:51:20;;;;;;;6.70;2.50;;;;;;;26.89;40.23;101101.23;106178;1257;63705;-87
2023/10/02 10:53:52;;;;;;;5.30;2.40;;;;;;;26.86;40.49;101106.71;106726;1261;60506;-87
2023/10/02 10:56:22;;;;;;;7.20;2.80;;;;;;;26.83;40.92;101112.09;106251;1257;63758;-88
2023/10/02 10:59:02;;;;;;;9.30;2.30;;;;;;;26.82;40.74;101112.39;106540;1257;60799;-89
2023/10/02 11:01:30;;;;;;;9.60;2.60;;;;;;;26.82;40.60;101109.91;106545;1256;60460;-90
2023/10/02 11:04:02;;;;;;;6.70;2.20;;;;;;;26.75;40.35;101106.68;106605;1257;65423;-89
2023/10/02 11:06:30;;;;;;;6.10;2.20;;;;;;;26.66;40.24;101113.23;107850;1256;60462;-88
2023/10/02 11:09:12;;;;;;;6.10;2.30;;;;;;;26.52;40.34;101111.45;106398;1260;63767;-89
2023/10/02 11:11:49;;;;;;;8.90;2.20;;;;;;;26.45;40.64;101112.19;106563;1260;60541;-87
2023/10/02 11:14:21;;;;;;;8.80;2.50;;;;;;;26.40;40.40;101113.46;106459;1257;60377;-87
2023/10/02 11:16:54;;;;;;;8.50;2.20;;;;;;;26.36;40.28;101113.06;106444;1260;65011;-90
2023/10/02 11:22:21;;;;;;;6.50;2.30;;;;;;;26.19;40.27;101110.96;106501;1257;63925;-88
2023/10/02 11:24:55;;;;;;;7.10;2.10;;;;;;;26.17;40.78;101115.03;106568;1257;60447;-87
2023/10/02 11:27:23;;;;;;;6.60;2.60;;;;;;;26.30;41.00;101115.11;106484;1257;60565;-88
2023/10/02 11:30:03;;;;;;;9.30;3.60;;;;;;;26.38;40.94;101120.46;106888;1255;64922;-88
2023/10/02 11:32:59;;;;;;;9.50;3.30;;;;;;;26.34;40.89;101120.39;106374;1257;60377;-85
2023/10/02 11:35:37;;;;;;;6.80;2.50;;;;;;;26.30;40.45;101119.35;106788;1258;64077;-88
2023/10/02 11:38:09;;;;;;;9.00;2.60;;;;;;;26.19;40.50;101118.66;106411;1257;60520;-88
2023/10/02 11:40:38;;;;;;;21.40;4.00;;;;;;;26.04;41.01;101119.09;106469;1257;60373;-89
2023/10/02 11:43:07;;;;;;;10.80;3.80;;;;;;;26.02;41.32;101115.75;107277;1260;65243;-88
2023/10/02 11:45:36;;;;;;;11.60;3.50;;;;;;;26.00;41.48;101116.98;106629;1257;60466;-87
2023/10/02 11:48:09;;;;;;;8.50;3.80;;;;;;;26.02;41.57;101116.48;106528;1260;66148;-86
2023/10/02 11:50:38;;;;;;;6.40;3.60;;;;;;;26.05;42.00;101113.98;106559;1258;60443;-87
2023/10/02 11:53:06;;;;;;;8.30;4.20;;;;;;;26.08;41.95;101115.48;106580;1259;60454;-87
2023/10/02 11:55:33;;;;;;;9.10;4.10;;;;;;;26.14;41.90;101115.84;106961;1257;63717;-87
2023/10/02 11:58:04;;;;;;;5.50;3.00;;;;;;;26.22;41.25;101114.40;106404;1259;60480;-87
2023/10/02 12:00:32;;;;;;;6.80;2.60;;;;;;;26.20;40.45;101117.40;106408;1258;63772;-88
2023/10/02 12:03:00;;;;;;;6.50;2.60;;;;;;;26.17;39.79;101116.94;106526;1257;60380;-91
2023/10/02 12:05:30;;;;;;;8.80;2.90;;;;;;;26.12;40.03;101117.17;106444;1258;60473;-91
2023/10/02 12:07:59;;;;;;;8.20;3.00;;;;;;;26.08;39.77;101116.69;107043;1257;64894;-88
2023/10/02 12:10:27;;;;;;;8.10;3.00;;;;;;;26.08;39.66;101118.11;106106;1257;62919;-88
2023/10/02 12:12:55;;;;;;;8.50;2.80;;;;;;;26.11;39.48;101117.55;106085;1256;63831;-87
2023/10/02 12:15:23;;;;;;;7.60;3.10;;;;;;;26.05;39.65;101118.30;106044;1260;60472;-88
2023/10/02 12:17:53;;;;;;;30.80;15.70;;;;;;;25.97;39.84;101120.63;106004;1259;60572;-88
2023/10/02 12:20:22;;;;;;;8.80;3.50;;;;;;;25.92;39.82;101118.59;107019;1257;65072;-88
2023/10/02 12:22:53;;;;;;;7.20;2.90;;;;;;;25.92;39.91;101121.23;106180;1259;60456;-88
2023/10/02 12:25:21;;;;;;;12.50;3.50;;;;;;;26.01;39.95;101125.17;106080;1257;65726;-87
2023/10/02 12:27:50;;;;;;;11.90;3.30;;;;;;;26.05;40.02;101124.22;106306;1261;60567;-87
2023/10/02 12:30:18;;;;;;;9.10;3.40;;;;;;;26.13;39.90;101120.39;106307;1257;60471;-86
2023/10/02 12:32:49;;;;;;;8.50;3.60;;;;;;;26.20;39.76;101122.27;106942;1258;65159;-86
2023/10/02 12:35:18;;;;;;;5.80;2.50;;;;;;;26.18;39.80;101120.00;106203;1257;60357;-86
2023/10/02 12:37:46;;;;;;;6.00;2.80;;;;;;;26.26;39.78;101119.02;106067;1257;62598;-86
2023/10/02 12:40:18;;;;;;;7.30;2.80;;;;;;;26.37;39.51;101117.65;106071;1257;60496;-87
2023/10/02 12:42:46;;;;;;;6.40;3.10;;;;;;;26.50;38.93;101117.17;105951;1257;60321;-87
2023/10/02 12:45:14;;;;;;;5.10;2.40;;;;;;;26.53;38.70;101115.25;106706;1261;64948;-87
2023/10/02 12:47:42;;;;;;;6.30;2.70;;;;;;;26.56;38.61;101113.95;106005;1262;60565;-87
2023/10/02 12:50:11;;;;;;;7.70;2.60;;;;;;;26.57;38.72;101114.44;105948;1257;63771;-86
2023/10/02 12:52:39;;;;;;;12.30;3.10;;;;;;;26.58;38.68;101111.27;106124;1257;60450;-87
2023/10/02 12:55:07;;;;;;;6.40;3.10;;;;;;;26.59;38.73;101109.99;106066;1262;60559;-87
2023/10/02 12:57:36;;;;;;;6.90;2.70;;;;;;;26.58;38.29;101111.83;106589;1261;65041;-86
2023/10/02 13:00:17;;;;;;;7.50;2.90;;;;;;;26.44;38.09;101110.66;105897;1257;61658;-86
2023/10/02 13:02:47;;;;;;;9.40;3.60;;;;;;;26.32;37.88;101109.86;106249;1256;63719;-85
2023/10/02 13:05:15;;;;;;;4.80;2.60;;;;;;;26.16;38.01;101108.59;106203;1260;60431;-86
2023/10/02 13:07:45;;;;;;;8.60;3.00;;;;;;;26.04;37.99;101111.41;105944;1257;60360;-87
2023/10/02 13:10:14;;;;;;;6.90;2.80;;;;;;;25.93;38.10;101110.78;106536;1260;66538;-86
2023/10/02 13:12:42;;;;;;;7.10;2.60;;;;;;;25.87;38.07;101110.97;105960;1257;60645;-88
2023/10/02 13:15:13;;;;;;;8.10;2.90;;;;;;;25.85;38.32;101108.10;105932;1257;62427;-88
2023/10/02 13:17:42;;;;;;;7.40;2.90;;;;;;;25.90;38.54;101108.88;105884;1260;60546;-87
2023/10/02 13:20:10;;;;;;;5.50;2.60;;;;;;;25.98;38.49;101108.96;106116;1261;60841;-87
2023/10/02 13:22:39;;;;;;;11.00;3.30;;;;;;;26.12;38.39;101107.40;105960;1258;72986;-87
2023/10/02 13:25:11;;;;;;;7.00;3.30;;;;;;;26.19;37.77;101107.45;108223;1256;60371;-86
2023/10/02 13:27:41;;;;;;;15.90;3.50;;;;;;;26.30;37.74;101106.23;106038;1258;65954;-87
2023/10/02 13:30:11;;;;;;;5.10;2.90;;;;;;;26.40;37.65;101106.58;106066;1257;60373;-87
2023/10/02 13:32:40;;;;;;;7.60;3.00;;;;;;;26.49;37.25;101106.51;105981;1262;60371;-87
2023/10/02 13:35:09;;;;;;;8.10;3.20;;;;;;;26.59;37.08;101106.00;106043;1257;67054;-85
2023/10/02 13:37:38;;;;;;;8.60;3.00;;;;;;;26.66;36.64;101109.95;106882;1257;63094;-84
2023/10/02 13:40:18;;;;;;;8.20;2.70;;;;;;;26.65;36.46;101107.38;105938;1257;65932;-85
2023/10/02 13:42:49;;;;;;;8.50;2.60;;;;;;;26.67;36.44;101113.27;105780;1257;60516;-87
2023/10/02 13:45:21;;;;;;;6.50;2.70;;;;;;;26.63;36.36;101116.14;105955;1256;60370;-86
2023/10/02 13:47:49;;;;;;;10.80;3.30;;;;;;;26.59;36.46;101114.32;106049;1257;63727;-87
2023/10/02 13:50:17;;;;;;;6.90;2.90;;;;;;;26.57;36.42;101113.73;105983;1256;60513;-85
2023/10/02 13:52:44;;;;;;;8.40;3.00;;;;;;;26.56;36.57;101118.12;106786;1260;64694;-85
2023/10/02 13:55:26;;;;;;;8.30;3.00;;;;;;;26.50;36.45;101115.98;105962;1257;60565;-87
2023/10/02 13:57:56;;;;;;;9.40;3.10;;;;;;;26.41;36.68;101118.92;105887;1262;60399;-87